Time;durP1;ratioP1;P1;durP2;ratioP2;P2;SDS_P1;SDS_P2;PMS_P1;PMS_P2;Temp;Humidity;BMP_temperature;BMP_pressure;BME280_temperature;BME280_humidity;BME280_pressure;Samples;Min_cycle;Max_cycle;Signal;HPM_P1;HPM_P2
2022/06/07 00:00:05;;;;;;;3.20;2.53;;;18.40;97.40;;;;;;5011779;28;20040;-85
2022/06/07 00:02:33;;;;;;;3.72;2.00;;;18.40;97.50;;;;;;5012877;28;20045;-86
2022/06/07 00:04:59;;;;;;;3.30;2.22;;;18.40;97.60;;;;;;5011514;28;20030;-84
2022/06/07 00:07:25;;;;;;;3.83;2.30;;;18.40;97.80;;;;;;5010388;28;20368;-87
2022/06/07 00:09:52;;;;;;;9.93;2.50;;;18.40;97.90;;;;;;5009562;28;20026;-85
2022/06/07 00:12:17;;;;;;;2.65;2.05;;;18.40;98.00;;;;;;5010900;28;20042;-85
2022/06/07 00:14:44;;;;;;;2.42;2.10;;;18.40;97.90;;;;;;5011750;28;20536;-85
2022/06/07 00:17:09;;;;;;;3.63;2.33;;;18.40;98.00;;;;;;5012919;28;20046;-86
2022/06/07 00:19:35;;;;;;;3.08;2.28;;;18.40;98.10;;;;;;5010875;28;20033;-85
2022/06/07 00:22:02;;;;;;;3.53;1.75;;;18.50;98.10;;;;;;5011725;28;20493;-84
2022/06/07 00:24:27;;;;;;;2.30;1.98;;;18.40;98.10;;;;;;5010859;28;20117;-87
2022/06/07 00:26:53;;;;;;;2.53;2.13;;;18.40;98.00;;;;;;5010857;28;20461;-86
2022/06/07 00:29:21;;;;;;;3.05;2.33;;;18.50;98.00;;;;;;5012270;28;20041;-85
2022/06/07 00:31:47;;;;;;;3.42;2.08;;;18.50;98.00;;;;;;5010389;28;20460;-84
2022/06/07 00:34:14;;;;;;;2.83;2.17;;;18.40;98.10;;;;;;5012315;28;20037;-87
2022/06/07 00:36:40;;;;;;;2.60;1.83;;;18.40;98.40;;;;;;5011540;28;20057;-85
2022/06/07 00:39:06;;;;;;;3.22;2.30;;;18.40;98.10;;;;;;5010670;28;20445;-85
2022/06/07 00:41:32;;;;;;;3.17;2.60;;;18.40;98.10;;;;;;5011517;28;20029;-86
2022/06/07 00:44:21;;;;;;;3.25;2.08;;;18.40;98.20;;;;;;5027228;28;20113;-84
2022/06/07 00:46:54;;;;;;;2.47;2.00;;;18.40;98.10;;;;;;5036006;28;20022;-85
2022/06/07 00:49:21;;;;;;;3.38;2.40;;;18.40;98.10;;;;;;5028220;28;20037;-87
2022/06/07 00:51:47;;;;;;;2.92;2.20;;;18.30;98.10;;;;;;5012368;28;20033;-86
2022/06/07 00:54:29;;;;;;;3.15;2.30;;;18.30;98.10;;;;;;5029140;28;20049;-86
2022/06/07 00:56:55;;;;;;;3.05;2.45;;;18.30;98.10;;;;;;5017822;28;20029;-84
2022/06/07 00:59:22;;;;;;;3.95;2.40;;;18.20;98.10;;;;;;4999557;28;20434;-86
2022/06/07 01:01:47;;;;;;;2.70;1.92;;;18.20;98.20;;;;;;5019314;28;20038;-85
2022/06/07 01:04:13;;;;;;;3.65;2.22;;;18.20;98.30;;;;;;5010428;28;20084;-84
2022/06/07 01:12:06;;;;;;;2.92;2.10;;;18.10;98.60;;;;;;5011119;28;20053;-85
2022/06/07 01:14:32;;;;;;;2.60;2.10;;;18.10;98.70;;;;;;5010874;28;20018;-87
2022/06/07 01:16:58;;;;;;;2.65;2.13;;;18.00;98.60;;;;;;5017147;28;20052;-85
2022/06/07 01:19:24;;;;;;;2.78;2.08;;;18.00;98.70;;;;;;5010734;28;20457;-86
2022/06/07 01:21:50;;;;;;;4.00;2.65;;;18.00;98.80;;;;;;5012295;28;20133;-85
2022/06/07 01:24:16;;;;;;;5.00;2.28;;;17.90;98.90;;;;;;5010156;28;20026;-86
2022/06/07 01:26:42;;;;;;;3.58;2.38;;;17.90;99.10;;;;;;5011636;28;20125;-87
2022/06/07 01:29:08;;;;;;;3.35;2.13;;;17.80;99.20;;;;;;5009741;28;20034;-85
2022/06/07 01:31:34;;;;;;;3.22;2.80;;;17.80;99.20;;;;;;5008234;28;20025;-88
2022/06/07 01:34:00;;;;;;;6.60;2.55;;;17.80;99.20;;;;;;5010178;28;20117;-86
2022/06/07 01:36:26;;;;;;;2.88;2.30;;;17.70;99.20;;;;;;5011367;28;20076;-85
2022/06/07 01:41:54;;;;;;;6.03;2.35;;;17.70;99.30;;;;;;5000835;28;20024;-86
2022/06/07 01:44:21;;;;;;;3.78;2.80;;;17.60;99.30;;;;;;5009352;28;20482;-85
2022/06/07 01:46:47;;;;;;;6.07;2.85;;;17.60;99.40;;;;;;5011637;28;20038;-86
2022/06/07 01:49:12;;;;;;;3.47;2.17;;;17.50;99.40;;;;;;5009635;28;20249;-86
2022/06/07 01:51:38;;;;;;;3.30;2.78;;;17.50;99.50;;;;;;5009421;28;20038;-86
2022/06/07 01:54:04;;;;;;;2.90;2.30;;;17.50;99.70;;;;;;5011222;28;20088;-85
2022/06/07 01:56:29;;;;;;;5.30;2.88;;;17.50;99.70;;;;;;5009470;28;20072;-86
2022/06/07 01:58:57;;;;;;;6.72;2.78;;;17.50;99.70;;;;;;5010056;28;20049;-86
2022/06/07 02:01:22;;;;;;;4.38;2.58;;;17.50;99.80;;;;;;5006083;28;20038;-86
2022/06/07 02:03:48;;;;;;;3.33;2.78;;;17.50;99.90;;;;;;5001997;28;20080;-86
2022/06/07 02:06:13;;;;;;;3.53;2.30;;;17.50;99.90;;;;;;5014557;28;20489;-86
2022/06/07 02:08:41;;;;;;;2.60;2.28;;;17.50;99.90;;;;;;5010415;28;20041;-86
2022/06/07 02:11:18;;;;;;;3.55;2.28;;;17.50;99.90;;;;;;5009104;28;20560;-87
2022/06/07 02:13:44;;;;;;;3.00;2.35;;;17.50;99.90;;;;;;5011069;28;20041;-85
2022/06/07 02:16:10;;;;;;;3.28;2.40;;;17.50;99.90;;;;;;5009700;28;20030;-84
2022/06/07 02:18:36;;;;;;;3.63;2.78;;;17.50;99.90;;;;;;5022208;28;20076;-85
2022/06/07 02:21:02;;;;;;;3.30;2.50;;;17.50;99.90;;;;;;5008986;28;20038;-88
2022/06/07 02:23:29;;;;;;;2.95;2.15;;;17.50;99.90;;;;;;5010481;28;20191;-85
2022/06/07 02:25:59;;;;;;;7.20;2.15;;;17.50;99.90;;;;;;5008547;28;20026;-87
2022/06/07 02:28:28;;;;;;;3.35;2.60;;;17.50;99.90;;;;;;5010095;28;20069;-87
2022/06/07 02:30:54;;;;;;;2.55;2.25;;;17.50;99.90;;;;;;5009046;28;20073;-86
2022/06/07 02:33:21;;;;;;;4.50;2.65;;;17.50;99.90;;;;;;5025545;28;20034;-85
2022/06/07 02:35:47;;;;;;;2.85;2.10;;;17.50;99.90;;;;;;5014045;28;20030;-87
2022/06/07 02:38:14;;;;;;;3.88;2.63;;;17.60;99.90;;;;;;5009355;28;20030;-86
2022/06/07 02:40:41;;;;;;;4.20;2.53;;;17.60;99.90;;;;;;5026036;28;20048;-87
2022/06/07 02:43:07;;;;;;;3.75;2.65;;;17.50;99.90;;;;;;5009106;28;20038;-86
2022/06/07 02:45:33;;;;;;;4.22;2.60;;;17.50;99.90;;;;;;5009596;28;20087;-86
2022/06/07 02:47:58;;;;;;;2.45;2.25;;;17.50;99.90;;;;;;5025860;28;20032;-85
2022/06/07 02:50:24;;;;;;;3.33;2.30;;;17.60;99.90;;;;;;5008993;28;20168;-85
2022/06/07 02:52:49;;;;;;;3.85;2.53;;;17.60;99.90;;;;;;5024939;28;20045;-86
2022/06/07 02:55:15;;;;;;;4.03;2.33;;;17.60;99.90;;;;;;5008734;28;20443;-84
2022/06/07 02:57:41;;;;;;;4.50;2.35;;;17.50;99.90;;;;;;5009438;28;20463;-87
2022/06/07 03:00:09;;;;;;;5.30;3.00;;;17.50;99.90;;;;;;5010127;28;20119;-86
2022/06/07 03:02:35;;;;;;;3.15;2.60;;;17.50;99.90;;;;;;5008189;28;20026;-87
2022/06/07 03:05:01;;;;;;;2.85;2.55;;;17.50;99.90;;;;;;5008121;28;20033;-87
2022/06/07 03:07:26;;;;;;;3.88;3.08;;;17.60;99.90;;;;;;5009878;28;20501;-85
2022/06/07 03:09:52;;;;;;;4.22;2.90;;;17.60;99.80;;;;;;5020590;28;20637;-86
2022/06/07 03:12:17;;;;;;;3.28;2.95;;;17.60;99.80;;;;;;5010623;28;20038;-87
2022/06/07 03:14:43;;;;;;;3.83;3.05;;;17.70;99.70;;;;;;5009439;28;20478;-87
2022/06/07 03:17:08;;;;;;;3.33;2.72;;;17.70;99.60;;;;;;5009918;28;20026;-87
2022/06/07 03:19:34;;;;;;;7.45;3.20;;;17.80;99.50;;;;;;5023296;28;20037;-88
2022/06/07 03:22:00;;;;;;;4.50;2.90;;;17.80;99.40;;;;;;5010250;28;20129;-86
2022/06/07 03:24:26;;;;;;;3.03;2.72;;;17.80;99.20;;;;;;5009283;28;20459;-87
2022/06/07 03:26:53;;;;;;;3.00;2.60;;;17.90;98.90;;;;;;5010326;28;20034;-85
2022/06/07 03:29:18;;;;;;;3.40;2.63;;;17.90;98.80;;;;;;5014572;28;20036;-87
2022/06/07 03:31:44;;;;;;;3.08;2.17;;;17.90;98.50;;;;;;5009357;28;20034;-85
2022/06/07 03:34:09;;;;;;;2.67;2.20;;;18.00;98.40;;;;;;5011458;28;20030;-87
2022/06/07 03:36:35;;;;;;;5.53;2.63;;;18.00;98.40;;;;;;5028769;28;20026;-86
2022/06/07 03:39:04;;;;;;;2.70;2.38;;;18.00;98.30;;;;;;5012165;28;20049;-86
2022/06/07 03:41:31;;;;;;;3.83;2.38;;;18.10;98.20;;;;;;5012615;28;20030;-85
2022/06/07 03:43:57;;;;;;;2.88;2.40;;;18.10;98.10;;;;;;5013688;28;20030;-84
2022/06/07 03:46:25;;;;;;;2.80;1.92;;;18.10;98.10;;;;;;5011792;28;20040;-86
2022/06/07 03:48:51;;;;;;;3.78;2.40;;;18.20;98.10;;;;;;5013476;28;20041;-85
2022/06/07 03:51:20;;;;;;;2.47;2.22;;;18.20;97.80;;;;;;5012964;28;20072;-87
2022/06/07 03:53:46;;;;;;;3.03;2.30;;;18.10;97.60;;;;;;5016811;28;20044;-87
2022/06/07 03:56:12;;;;;;;3.53;2.75;;;18.20;97.70;;;;;;5014104;28;20034;-85
2022/06/07 03:58:38;;;;;;;2.65;2.15;;;18.10;97.60;;;;;;5030109;28;20045;-88
2022/06/07 04:01:05;;;;;;;2.45;2.25;;;18.10;97.50;;;;;;5030114;28;20390;-85
2022/06/07 04:03:31;;;;;;;3.70;2.22;;;18.10;97.60;;;;;;5014769;28;20044;-88
2022/06/07 04:05:57;;;;;;;6.30;2.90;;;18.10;97.50;;;;;;5018920;28;20030;-87
2022/06/07 04:08:25;;;;;;;5.50;2.25;;;18.10;97.40;;;;;;5024867;28;20041;-86
2022/06/07 04:10:59;;;;;;;2.60;1.88;;;18.20;97.30;;;;;;5020274;28;20045;-85
2022/06/07 04:13:28;;;;;;;2.65;2.35;;;18.20;97.30;;;;;;5014722;28;20037;-87
2022/06/07 04:15:54;;;;;;;2.90;2.17;;;18.20;97.30;;;;;;5013405;28;20041;-84
2022/06/07 04:18:20;;;;;;;2.58;2.22;;;18.30;97.30;;;;;;5012848;28;20475;-86
2022/06/07 04:20:46;;;;;;;6.93;2.35;;;18.30;97.10;;;;;;5011622;28;20080;-85
2022/06/07 04:23:18;;;;;;;5.38;2.50;;;18.30;97.10;;;;;;5003996;28;20035;-87
2022/06/07 04:25:45;;;;;;;2.25;2.03;;;18.30;97.10;;;;;;5013154;28;20033;-87
2022/06/07 04:28:11;;;;;;;2.00;1.63;;;18.30;97.10;;;;;;5016087;28;20490;-85
2022/06/07 04:30:41;;;;;;;6.30;2.15;;;18.30;97.00;;;;;;5030665;28;20057;-84
2022/06/07 04:33:07;;;;;;;3.50;2.28;;;18.30;97.00;;;;;;5023246;28;20091;-86
2022/06/07 04:35:32;;;;;;;2.35;1.77;;;18.40;96.90;;;;;;5023401;28;20112;-85
2022/06/07 04:37:58;;;;;;;3.65;2.00;;;18.40;96.80;;;;;;5022797;28;20483;-87
2022/06/07 04:40:23;;;;;;;2.88;1.75;;;18.40;96.70;;;;;;5019307;28;20022;-87
2022/06/07 04:42:49;;;;;;;2.10;1.67;;;18.40;96.70;;;;;;5013196;28;20494;-89
2022/06/07 04:45:16;;;;;;;3.45;2.00;;;18.50;96.60;;;;;;5011096;28;20026;-86
2022/06/07 04:47:43;;;;;;;2.65;1.60;;;18.50;96.50;;;;;;5014048;28;20467;-88
2022/06/07 04:50:11;;;;;;;2.28;2.08;;;18.50;96.40;;;;;;5027890;28;20196;-88
2022/06/07 04:52:36;;;;;;;2.60;1.70;;;18.60;96.50;;;;;;5012690;28;20064;-86
2022/06/07 04:55:03;;;;;;;2.50;1.88;;;18.70;96.40;;;;;;5010843;28;20643;-85
2022/06/07 04:57:30;;;;;;;2.38;2.17;;;18.80;96.50;;;;;;5010698;28;20559;-87
2022/06/07 04:59:55;;;;;;;2.50;1.90;;;18.80;96.20;;;;;;5004709;28;20030;-86
2022/06/07 05:02:21;;;;;;;2.80;1.80;;;18.90;96.10;;;;;;5005836;28;20738;-88
2022/06/07 05:04:47;;;;;;;5.40;1.70;;;19.00;96.00;;;;;;5010562;28;20030;-87
2022/06/07 05:07:14;;;;;;;2.47;1.60;;;19.00;96.00;;;;;;4997380;28;20032;-87
2022/06/07 05:09:40;;;;;;;3.10;1.83;;;19.10;95.60;;;;;;5007631;28;20034;-87
2022/06/07 05:12:08;;;;;;;3.20;2.20;;;19.10;95.40;;;;;;5004627;28;20037;-89
2022/06/07 05:14:34;;;;;;;2.20;1.63;;;19.20;95.40;;;;;;5004028;28;20585;-85
2022/06/07 05:17:00;;;;;;;3.35;1.52;;;19.20;95.20;;;;;;5005542;28;20069;-86
2022/06/07 05:19:27;;;;;;;2.05;1.50;;;19.20;94.30;;;;;;5006390;28;20057;-88
2022/06/07 05:21:54;;;;;;;2.35;1.45;;;19.20;94.20;;;;;;5005393;28;20026;-87
2022/06/07 05:24:20;;;;;;;2.65;1.65;;;19.20;94.20;;;;;;5006599;28;20061;-86
2022/06/07 05:26:51;;;;;;;2.63;1.40;;;19.20;94.20;;;;;;5005987;28;20456;-87
2022/06/07 05:29:32;;;;;;;2.85;1.35;;;19.30;94.40;;;;;;5022048;28;20033;-86
2022/06/07 05:31:57;;;;;;;6.63;1.60;;;19.40;93.80;;;;;;5007513;28;20050;-86
2022/06/07 05:34:23;;;;;;;2.17;1.42;;;19.40;93.90;;;;;;5010030;28;20041;-87
2022/06/07 05:36:49;;;;;;;3.17;1.42;;;19.50;93.80;;;;;;5002587;28;20064;-87
2022/06/07 05:39:24;;;;;;;2.15;1.38;;;19.60;93.30;;;;;;5008817;28;20034;-86
2022/06/07 05:41:51;;;;;;;3.35;1.25;;;19.70;92.70;;;;;;5024151;28;20037;-87
2022/06/07 05:44:16;;;;;;;4.43;2.20;;;19.80;92.50;;;;;;5018919;28;20029;-86
2022/06/07 05:46:42;;;;;;;4.50;1.30;;;19.80;92.90;;;;;;5008719;28;20022;-87
2022/06/07 05:49:09;;;;;;;3.47;1.50;;;19.80;93.10;;;;;;5010700;28;20033;-87
2022/06/07 05:51:36;;;;;;;7.32;1.58;;;19.90;93.20;;;;;;5026558;28;20026;-86
2022/06/07 05:54:01;;;;;;;2.03;1.55;;;20.00;93.00;;;;;;5017288;28;20053;-86
2022/06/07 05:56:27;;;;;;;1.73;1.10;;;20.00;92.80;;;;;;5007250;28;20431;-89
2022/06/07 05:58:52;;;;;;;6.65;1.52;;;20.00;92.70;;;;;;5008641;28;20030;-86
2022/06/07 06:01:18;;;;;;;5.57;1.65;;;20.00;92.50;;;;;;5008774;28;20030;-86
2022/06/07 06:03:44;;;;;;;2.65;1.20;;;20.00;92.60;;;;;;5009930;28;20474;-86
2022/06/07 06:06:11;;;;;;;2.25;1.30;;;20.00;92.80;;;;;;5011502;28;20028;-86
2022/06/07 06:11:35;;;;;;;3.28;2.17;;;20.00;92.40;;;;;;4987743;28;20081;-86
2022/06/07 06:14:01;;;;;;;3.80;1.77;;;20.10;92.20;;;;;;5010108;28;20050;-88
2022/06/07 06:16:26;;;;;;;3.53;1.20;;;20.10;92.40;;;;;;5008659;28;20026;-87
2022/06/07 06:18:55;;;;;;;2.35;1.13;;;20.20;92.40;;;;;;5009965;28;20026;-88
2022/06/07 06:21:22;;;;;;;2.75;1.38;;;20.20;91.90;;;;;;5012009;28;20179;-86
2022/06/07 06:23:48;;;;;;;4.07;1.38;;;20.30;92.10;;;;;;5008525;28;20034;-86
2022/06/07 06:26:16;;;;;;;6.18;1.65;;;20.40;91.90;;;;;;5013438;28;20030;-86
2022/06/07 06:28:42;;;;;;;4.07;1.50;;;20.40;91.70;;;;;;5021448;28;20029;-87
2022/06/07 06:31:09;;;;;;;2.38;1.80;;;20.50;91.90;;;;;;5009336;28;20037;-87
2022/06/07 06:33:39;;;;;;;2.97;1.83;;;20.60;92.00;;;;;;5008945;28;20088;-84
2022/06/07 06:36:10;;;;;;;2.20;1.65;;;20.60;91.30;;;;;;5019620;28;20123;-87
2022/06/07 06:38:36;;;;;;;5.15;2.03;;;20.50;91.60;;;;;;5012944;28;20422;-87
2022/06/07 06:41:15;;;;;;;2.90;2.20;;;20.60;91.80;;;;;;5010633;28;20094;-85
2022/06/07 06:43:41;;;;;;;9.05;1.98;;;20.50;91.60;;;;;;5010601;28;20125;-86
2022/06/07 06:46:16;;;;;;;2.80;1.77;;;20.40;91.70;;;;;;5015770;28;20590;-82
2022/06/07 06:48:43;;;;;;;2.00;1.58;;;20.40;91.90;;;;;;5022605;28;20029;-83
2022/06/07 06:51:11;;;;;;;4.55;1.95;;;20.40;92.20;;;;;;5007720;28;20422;-86
2022/06/07 06:53:37;;;;;;;5.25;2.10;;;20.40;92.60;;;;;;5007900;28;20080;-85
2022/06/07 06:56:03;;;;;;;5.20;1.95;;;20.40;92.20;;;;;;5007054;28;20034;-87
2022/06/07 06:58:29;;;;;;;2.85;2.15;;;20.40;92.60;;;;;;5008560;28;20021;-89
2022/06/07 07:01:07;;;;;;;2.92;1.88;;;20.50;92.50;;;;;;5024584;28;20097;-87
2022/06/07 07:03:33;;;;;;;4.03;1.50;;;20.70;91.90;;;;;;5009157;28;20036;-88
2022/06/07 07:06:01;;;;;;;6.43;1.50;;;20.80;92.00;;;;;;5009482;28;20057;-88
2022/06/07 07:08:27;;;;;;;2.55;1.10;;;21.10;91.10;;;;;;5008523;28;20038;-86
2022/06/07 07:11:13;;;;;;;2.58;0.90;;;21.20;90.90;;;;;;5013140;28;20050;-87
2022/06/07 07:13:39;;;;;;;2.53;1.33;;;21.40;88.50;;;;;;5026126;28;20034;-87
2022/06/07 07:16:08;;;;;;;1.83;1.40;;;21.60;88.70;;;;;;5013055;28;20112;-86
2022/06/07 07:18:33;;;;;;;1.95;1.10;;;21.70;88.80;;;;;;5011923;28;20069;-87
2022/06/07 07:21:02;;;;;;;3.17;1.60;;;21.80;88.60;;;;;;5022056;28;20622;-86
2022/06/07 07:23:28;;;;;;;1.58;1.00;;;22.00;87.80;;;;;;5014289;28;20668;-86
2022/06/07 07:26:00;;;;;;;2.35;1.10;;;22.10;86.90;;;;;;5011182;28;20034;-85
2022/06/07 07:28:26;;;;;;;;;;;22.30;87.00;;;;;;5029003;28;20405;-91
2022/06/07 07:31:02;;;;;;;3.28;1.45;;;22.50;86.40;;;;;;5012481;28;19913;-87
2022/06/07 07:33:28;;;;;;;3.00;1.27;;;22.70;86.90;;;;;;5013473;28;20033;-85
2022/06/07 07:35:55;;;;;;;2.15;1.40;;;22.80;88.10;;;;;;5013889;28;20376;-85
2022/06/07 07:38:21;;;;;;;6.15;1.38;;;22.90;88.10;;;;;;5003106;28;20022;-87
2022/06/07 07:40:47;;;;;;;2.88;1.23;;;23.00;86.30;;;;;;5011540;28;20030;-86
2022/06/07 07:43:13;;;;;;;2.72;1.50;;;23.20;85.20;;;;;;5012498;28;20103;-88
2022/06/07 07:45:39;;;;;;;1.95;0.82;;;23.20;84.50;;;;;;5012066;28;20442;-90
2022/06/07 07:48:04;;;;;;;3.40;1.27;;;23.20;84.60;;;;;;5012282;28;20079;-86
2022/06/07 07:50:30;;;;;;;4.50;1.23;;;23.20;84.80;;;;;;5016283;28;20187;-88
2022/06/07 07:52:59;;;;;;;1.35;0.93;;;23.20;84.20;;;;;;5021128;28;20032;-87
2022/06/07 07:55:25;;;;;;;1.73;0.80;;;23.20;83.50;;;;;;5022944;28;20115;-86
2022/06/07 07:57:51;;;;;;;1.20;0.70;;;23.20;82.40;;;;;;5022347;28;20030;-83
2022/06/07 08:00:17;;;;;;;1.75;0.60;;;23.30;82.60;;;;;;5020763;28;20038;-86
2022/06/07 08:02:42;;;;;;;1.90;0.70;;;23.30;81.40;;;;;;5022134;28;20022;-84
2022/06/07 08:05:09;;;;;;;1.80;0.63;;;23.40;80.20;;;;;;5013210;28;20034;-86
2022/06/07 08:07:36;;;;;;;1.80;0.77;;;23.40;82.30;;;;;;5020752;28;20145;-86
2022/06/07 08:10:04;;;;;;;1.33;0.82;;;23.50;81.40;;;;;;5023185;28;20037;-86
2022/06/07 08:12:31;;;;;;;2.30;0.98;;;23.50;81.70;;;;;;5016427;28;20030;-85
2022/06/07 08:14:58;;;;;;;2.30;0.70;;;23.50;81.10;;;;;;5024285;28;20033;-86
2022/06/07 08:17:24;;;;;;;1.27;0.60;;;23.50;80.00;;;;;;5020052;28;20033;-85
2022/06/07 08:19:50;;;;;;;3.58;0.65;;;23.50;80.80;;;;;;5014582;28;20389;-87
2022/06/07 08:22:15;;;;;;;2.35;1.05;;;23.50;82.50;;;;;;5013616;28;20055;-86
2022/06/07 08:24:41;;;;;;;4.47;0.65;;;23.50;81.50;;;;;;5017410;28;20069;-86
2022/06/07 08:27:06;;;;;;;3.17;0.60;;;23.60;80.50;;;;;;5013914;28;20470;-87
2022/06/07 08:29:32;;;;;;;1.23;0.75;;;23.60;80.60;;;;;;5017137;28;20155;-86
2022/06/07 08:31:57;;;;;;;0.85;0.63;;;23.60;80.60;;;;;;5015714;28;20077;-86
2022/06/07 08:39:52;;;;;;;0.70;0.60;;;23.60;79.00;;;;;;5015521;28;20053;-86
2022/06/07 08:42:31;;;;;;;2.60;0.77;;;23.60;79.80;;;;;;5014830;28;20030;-86
2022/06/07 08:45:14;;;;;;;1.05;0.60;;;23.70;81.10;;;;;;5010363;28;20030;-85
2022/06/07 08:47:50;;;;;;;1.88;0.73;;;23.80;79.60;;;;;;5012111;28;20030;-86
2022/06/07 08:50:22;;;;;;;1.13;0.55;;;23.80;79.30;;;;;;5009345;28;20033;-86
2022/06/07 08:52:50;;;;;;;1.27;0.70;;;23.90;77.60;;;;;;5010223;28;20479;-87
2022/06/07 08:55:26;;;;;;;6.15;0.98;;;23.80;79.20;;;;;;5031068;28;20029;-87
2022/06/07 08:57:59;;;;;;;3.03;0.90;;;23.80;80.10;;;;;;5011268;28;20034;-83
2022/06/07 09:00:26;;;;;;;1.52;0.70;;;23.90;78.20;;;;;;5009478;28;20037;-81
2022/06/07 09:03:26;;;;;;;1.65;0.60;;;23.90;78.20;;;;;;5008304;28;20034;-86
2022/06/07 09:05:56;;;;;;;2.95;0.70;;;24.00;79.00;;;;;;5007291;28;20041;-86
2022/06/07 09:08:32;;;;;;;4.22;0.98;;;24.10;78.60;;;;;;5009311;28;20052;-86
2022/06/07 09:13:51;;;;;;;1.48;0.80;;;24.10;76.90;;;;;;5011895;28;20091;-86
2022/06/07 09:16:16;;;;;;;1.50;0.60;;;24.10;77.10;;;;;;5006625;28;20505;-87
2022/06/07 09:18:42;;;;;;;4.30;0.70;;;24.20;78.30;;;;;;5020800;28;20034;-89
2022/06/07 09:21:21;;;;;;;2.00;0.77;;;24.20;77.40;;;;;;5010492;28;20022;-87
2022/06/07 09:23:50;;;;;;;1.27;0.82;;;24.20;77.00;;;;;;5013493;28;20026;-82
2022/06/07 09:26:24;;;;;;;3.40;0.75;;;24.20;76.70;;;;;;5013077;28;20026;-87
2022/06/07 09:29:28;;;;;;;2.88;0.70;;;24.30;75.00;;;;;;5017720;28;20470;-89
2022/06/07 09:31:53;;;;;;;0.82;0.50;;;24.50;74.00;;;;;;5009660;28;20061;-88
2022/06/07 09:34:28;;;;;;;2.05;0.60;;;24.60;72.80;;;;;;5018360;28;20030;-89
2022/06/07 09:37:05;;;;;;;0.77;0.50;;;24.70;74.00;;;;;;5012585;28;20026;-87
2022/06/07 09:39:43;;;;;;;0.63;0.35;;;24.90;74.70;;;;;;5010979;28;20533;-89
2022/06/07 09:42:22;;;;;;;2.85;0.40;;;25.10;69.60;;;;;;5010185;28;20029;-87
2022/06/07 09:45:14;;;;;;;3.50;0.80;;;25.10;71.10;;;;;;5009180;28;20030;-88
2022/06/07 09:47:40;;;;;;;0.40;0.40;;;25.10;70.70;;;;;;5009270;28;20037;-88
2022/06/07 09:50:14;;;;;;;1.27;0.30;;;25.20;69.80;;;;;;5010502;28;20406;-88
2022/06/07 09:52:56;;;;;;;2.67;0.38;;;25.20;68.70;;;;;;5027467;28;20041;-85
2022/06/07 09:55:46;;;;;;;1.05;0.57;;;25.10;69.50;;;;;;5029035;28;20422;-87
2022/06/07 09:58:42;;;;;;;2.38;0.60;;;24.90;69.60;;;;;;5030041;28;20608;-88
2022/06/07 10:01:41;;;;;;;3.30;0.60;;;24.60;70.30;;;;;;5028269;28;20040;-86
2022/06/07 10:04:32;;;;;;;2.33;0.70;;;24.30;70.80;;;;;;5018182;28;20091;-87
2022/06/07 10:07:05;;;;;;;1.17;0.50;;;24.10;72.50;;;;;;5007001;28;20057;-86
2022/06/07 10:09:47;;;;;;;0.93;0.60;;;24.10;71.80;;;;;;5011620;28;20121;-88
2022/06/07 10:12:16;;;;;;;2.33;0.90;;;24.10;74.30;;;;;;5009425;28;20069;-90
2022/06/07 10:14:45;;;;;;;3.80;0.70;;;24.10;72.30;;;;;;5010368;28;20026;-88
2022/06/07 10:17:33;;;;;;;3.85;0.60;;;24.20;72.80;;;;;;5013115;28;20061;-88
2022/06/07 10:20:36;;;;;;;1.50;0.70;;;24.00;71.70;;;;;;5008056;28;20030;-87
2022/06/07 10:23:20;;;;;;;1.42;0.68;;;24.00;71.40;;;;;;5020807;28;20064;-87
2022/06/07 10:26:11;;;;;;;0.90;0.40;;;24.00;74.40;;;;;;5010414;28;20033;-88
2022/06/07 10:28:47;;;;;;;0.75;0.50;;;24.10;73.90;;;;;;4995479;28;20160;-87
2022/06/07 10:31:39;;;;;;;1.67;0.50;;;24.20;72.40;;;;;;5008733;28;20036;-88
2022/06/07 10:34:13;;;;;;;2.97;0.60;;;24.30;71.90;;;;;;5011807;28;20038;-87
2022/06/07 10:36:54;;;;;;;1.52;0.50;;;24.40;71.00;;;;;;5011825;28;20034;-89
2022/06/07 10:39:56;;;;;;;1.10;0.50;;;24.50;70.50;;;;;;5028122;28;20596;-88
2022/06/07 10:42:46;;;;;;;3.17;0.40;;;24.50;69.40;;;;;;5021004;28;20037;-87
2022/06/07 10:45:49;;;;;;;0.70;0.45;;;24.70;68.30;;;;;;4994196;28;20816;-87
2022/06/07 10:48:42;;;;;;;0.90;0.50;;;24.90;70.80;;;;;;4977975;28;20031;-88
2022/06/07 10:52:20;;;;;;;;;;;25.10;71.10;;;;;;5017628;28;20050;-88
2022/06/07 10:54:01;;;;;;;0.77;0.30;;;25.30;66.70;;;;;;5013913;28;19971;-88
2022/06/07 10:56:35;;;;;;;0.70;0.40;;;25.40;65.70;;;;;;5014124;28;20079;-88
2022/06/07 10:59:09;;;;;;;3.88;0.40;;;25.70;64.80;;;;;;5027689;28;20043;-87
2022/06/07 11:01:42;;;;;;;1.58;0.35;;;25.70;64.30;;;;;;5012787;28;20025;-87
2022/06/07 11:09:59;;;;;;;2.47;0.43;;;25.60;63.10;;;;;;5007438;28;20117;-88
2022/06/07 11:12:31;;;;;;;0.30;0.20;;;25.50;63.40;;;;;;5021903;28;20041;-89
2022/06/07 11:15:06;;;;;;;0.55;0.30;;;25.40;65.20;;;;;;5010975;28;20029;-87
2022/06/07 11:18:06;;;;;;;0.50;0.35;;;25.30;62.80;;;;;;5010925;28;20034;-90
2022/06/07 11:20:34;;;;;;;0.30;0.30;;;25.30;64.80;;;;;;5027090;28;20037;-85
2022/06/07 11:23:19;;;;;;;0.50;0.40;;;25.20;64.20;;;;;;5014254;28;20097;-89
2022/06/07 11:26:06;;;;;;;0.50;0.40;;;25.20;66.90;;;;;;5015018;28;20505;-88
2022/06/07 11:28:52;;;;;;;0.73;0.40;;;25.30;64.30;;;;;;5028154;28;20378;-87
2022/06/07 11:31:21;;;;;;;4.28;0.77;;;25.30;64.30;;;;;;5011485;28;20026;-88
2022/06/07 11:33:52;;;;;;;1.35;0.50;;;25.40;62.60;;;;;;5040648;28;20029;-86
2022/06/07 11:36:23;;;;;;;1.00;0.40;;;25.50;64.20;;;;;;5033676;28;20032;-87
2022/06/07 11:38:55;;;;;;;0.55;0.47;;;25.60;63.00;;;;;;5023844;28;20034;-88
2022/06/07 11:41:39;;;;;;;1.60;0.47;;;25.60;64.20;;;;;;5012414;28;20116;-87
2022/06/07 11:44:10;;;;;;;1.10;0.50;;;25.70;64.20;;;;;;5028057;28;20397;-88
2022/06/07 11:46:40;;;;;;;0.93;0.63;;;25.70;62.60;;;;;;5027737;28;20394;-88
2022/06/07 11:49:17;;;;;;;0.98;0.50;;;25.70;65.40;;;;;;5012433;28;20034;-87
2022/06/07 11:52:19;;;;;;;0.45;0.30;;;25.60;63.80;;;;;;5030450;28;20033;-87
2022/06/07 11:54:56;;;;;;;0.67;0.27;;;25.40;62.30;;;;;;5014133;28;20389;-86
2022/06/07 11:57:32;;;;;;;0.35;0.35;;;25.20;64.00;;;;;;5013308;28;20040;-87
2022/06/07 12:00:21;;;;;;;2.03;0.40;;;25.00;65.10;;;;;;5012079;28;20107;-87
2022/06/07 12:02:56;;;;;;;1.08;0.40;;;25.10;65.60;;;;;;5011630;28;20037;-85
2022/06/07 12:05:45;;;;;;;4.07;0.40;;;25.20;62.60;;;;;;5014811;28;20057;-88
2022/06/07 12:08:38;;;;;;;1.17;0.57;;;25.20;64.70;;;;;;5021953;28;20752;-86
2022/06/07 12:11:23;;;;;;;0.45;0.32;;;25.30;62.90;;;;;;5007216;28;20038;-82
2022/06/07 12:14:00;;;;;;;1.55;0.52;;;25.30;64.40;;;;;;5007659;28;20052;-87
2022/06/07 12:16:39;;;;;;;0.75;0.43;;;25.20;63.20;;;;;;5019110;28;20030;-89
2022/06/07 12:19:16;;;;;;;1.50;0.30;;;25.10;62.80;;;;;;5010391;28;20698;-86
2022/06/07 12:21:55;;;;;;;0.50;0.40;;;25.10;62.60;;;;;;5020976;28;20083;-86
2022/06/07 12:24:21;;;;;;;1.20;0.30;;;25.20;65.70;;;;;;5010747;28;20064;-87
2022/06/07 12:26:47;;;;;;;0.40;0.30;;;25.50;64.20;;;;;;5009374;28;20105;-87
2022/06/07 12:29:23;;;;;;;2.08;0.50;;;25.90;64.40;;;;;;5009771;28;20087;-87
2022/06/07 12:31:56;;;;;;;1.45;0.70;;;26.20;64.30;;;;;;5008454;28;20034;-86
2022/06/07 12:34:30;;;;;;;2.92;0.47;;;26.50;63.00;;;;;;5025946;28;20046;-88
2022/06/07 12:37:03;;;;;;;1.38;0.40;;;26.70;61.30;;;;;;4997881;28;20398;-88
2022/06/07 12:39:30;;;;;;;0.77;0.30;;;26.80;59.00;;;;;;5008073;28;20030;-86
2022/06/07 12:42:03;;;;;;;1.60;0.40;;;26.60;58.50;;;;;;4999257;28;20033;-87
2022/06/07 12:44:36;;;;;;;3.60;0.43;;;26.20;60.00;;;;;;5012115;28;20117;-88
2022/06/07 12:47:03;;;;;;;0.60;0.40;;;26.00;61.70;;;;;;5007665;28;20102;-88
2022/06/07 12:49:40;;;;;;;0.73;0.40;;;25.80;61.40;;;;;;5007121;28;20031;-88
2022/06/07 12:52:07;;;;;;;2.65;0.30;;;25.80;62.60;;;;;;5013143;28;20087;-87
2022/06/07 12:54:34;;;;;;;1.58;0.40;;;26.00;58.90;;;;;;5010603;28;20025;-88
2022/06/07 12:57:04;;;;;;;0.43;0.25;;;26.10;60.50;;;;;;5008438;28;20109;-87
2022/06/07 13:00:03;;;;;;;1.17;0.30;;;26.20;60.60;;;;;;5025359;28;20117;-88
2022/06/07 13:02:42;;;;;;;1.30;0.45;;;26.20;57.60;;;;;;5010267;28;20036;-88
2022/06/07 13:05:16;;;;;;;1.98;0.40;;;26.20;57.70;;;;;;5010388;28;20030;-88
2022/06/07 13:07:48;;;;;;;1.35;0.30;;;26.10;56.80;;;;;;5019566;28;20631;-88
2022/06/07 13:10:17;;;;;;;0.47;0.38;;;26.00;56.80;;;;;;5008616;28;20449;-88
2022/06/07 13:13:24;;;;;;;0.22;0.20;;;25.80;57.80;;;;;;5008151;28;20511;-89
2022/06/07 13:16:00;;;;;;;0.98;0.30;;;25.70;59.40;;;;;;5002550;28;20030;-87
2022/06/07 13:18:31;;;;;;;4.30;0.32;;;25.70;59.60;;;;;;5008821;28;20026;-88
2022/06/07 13:21:18;;;;;;;1.08;0.40;;;25.70;58.40;;;;;;5008354;28;20021;-88
2022/06/07 13:23:45;;;;;;;0.40;0.30;;;25.70;58.30;;;;;;5025355;28;20401;-88
2022/06/07 13:26:23;;;;;;;1.13;0.60;;;25.90;61.60;;;;;;5025716;28;20032;-89
2022/06/07 13:29:14;;;;;;;3.63;0.40;;;26.10;58.10;;;;;;5009174;28;20042;-87
2022/06/07 13:31:49;;;;;;;0.98;0.52;;;26.40;58.90;;;;;;5009413;28;20379;-87